Etusivu
METAR-TAF:

METAR-TAF

Lentoasemat :

Saint-Denis, Réunion

Leveyspiiri: 20-53S, Pituuspiiri: 055-31E, korkeus merenpinnasta: 21 m

Tämänhetkinen sää

Tämä raportti tehtiin 41 minuuttia sitten, kello 08.30 UTC
Tuuli 19 kn idästä
Lämpötila 27°C
Kosteus 58%
Ilmanpaine 1021 hPa
Näkyvyys 10 km tai enemmän

METAR: FMEE 200830Z AUTO 08019KT 9999 NCD 27/18 Q1021 BECMG 10015G25KT

Aika: 13:11 (09:11 UTC)

Sääennuste

Tämä raportti tehtiin 4 tuntia ja 11 minuuttia sitten, kello 05.00 UTC
Ennuste voimassa 20. päivästä klo 06 UTC - 21. päivään klo 12 UTC
Tuuli 15 kn idästä puuskistuen 25 kn:hen
Näkyvyys 10 km tai enemmän
ei pilviä alle 1500 m:ssä eikä cumulonimbus-pilviä
Tulossa
20. päivästä klo 12 UTC - 20. päivään klo 14 UTC
Tuuli 10 kn kaakosta
Tulossa
21. päivästä klo 04 UTC - 21. päivään klo 06 UTC
Tuuli 18 kn idästä puuskistuen 28 kn:hen

TAF: FMEE 200500Z 2006/2112 10015G25KT CAVOK BECMG 2012/2014 13010KT BECMG 2104/2106 10018G28KT

Säähavainnot ja -ennusteet yli 4000 lentoasemalta (METAR- ja TAF-raportit).

Käytössä olevat sääasemat on merkitty karttaan keltaisilla ja punaisilla pisteillä.

Aseta hiiri pisteen päälle nähdäksesi sääaseman nimen.

Klikkaa sitten nähdäksesi säähavainnot ja -ennusteet.

Kartan vaihtaminen: klikkaa mustalla rastilla varustettuja vihreitä pisteitä, niin voit zoomata sisään; viivalla varustettua vihreää pistettä, niin voit zoomata ulos tai vihreitä nuolia, niin pääset viereisille kartoille.


METAR-TAF: